sensor_id;sensor_type;location;lat;lon;timestamp;P1;durP1;ratioP1;P2;durP2;ratioP2
59728;SDS011;45588;51.598;5.618;2022-11-20T00:01:31;21.30;;;12.45;;
59728;SDS011;45588;51.598;5.618;2022-11-20T00:03:57;17.92;;;11.00;;
59728;SDS011;45588;51.598;5.618;2022-11-20T00:06:23;23.65;;;12.45;;
59728;SDS011;45588;51.598;5.618;2022-11-20T00:08:49;22.48;;;12.70;;
59728;SDS011;45588;51.598;5.618;2022-11-20T00:11:19;29.90;;;15.25;;
59728;SDS011;45588;51.598;5.618;2022-11-20T00:13:47;33.97;;;17.90;;
59728;SDS011;45588;51.598;5.618;2022-11-20T00:16:15;30.00;;;16.05;;
59728;SDS011;45588;51.598;5.618;2022-11-20T00:18:42;28.40;;;15.43;;
59728;SDS011;45588;51.598;5.618;2022-11-20T00:21:15;28.48;;;14.70;;
59728;SDS011;45588;51.598;5.618;2022-11-20T00:23:45;29.58;;;17.00;;
59728;SDS011;45588;51.598;5.618;2022-11-20T00:26:12;26.42;;;15.85;;
59728;SDS011;45588;51.598;5.618;2022-11-20T00:28:39;27.23;;;15.13;;
59728;SDS011;45588;51.598;5.618;2022-11-20T00:31:10;28.45;;;15.93;;
59728;SDS011;45588;51.598;5.618;2022-11-20T00:33:40;25.73;;;16.38;;
59728;SDS011;45588;51.598;5.618;2022-11-20T00:36:07;31.73;;;17.65;;
59728;SDS011;45588;51.598;5.618;2022-11-20T00:38:35;32.08;;;19.65;;
59728;SDS011;45588;51.598;5.618;2022-11-20T00:41:02;31.02;;;19.45;;
59728;SDS011;45588;51.598;5.618;2022-11-20T00:43:29;30.25;;;18.40;;
59728;SDS011;45588;51.598;5.618;2022-11-20T00:48:28;27.48;;;16.88;;
59728;SDS011;45588;51.598;5.618;2022-11-20T00:50:53;29.00;;;18.25;;
59728;SDS011;45588;51.598;5.618;2022-11-20T00:53:19;33.15;;;19.02;;
59728;SDS011;45588;51.598;5.618;2022-11-20T00:55:52;30.88;;;17.00;;
59728;SDS011;45588;51.598;5.618;2022-11-20T00:58:21;27.38;;;16.45;;
59728;SDS011;45588;51.598;5.618;2022-11-20T01:00:47;26.50;;;15.05;;
59728;SDS011;45588;51.598;5.618;2022-11-20T01:03:12;22.88;;;13.05;;
59728;SDS011;45588;51.598;5.618;2022-11-20T01:05:38;19.13;;;11.77;;
59728;SDS011;45588;51.598;5.618;2022-11-20T01:08:03;21.75;;;12.00;;
59728;SDS011;45588;51.598;5.618;2022-11-20T01:10:29;19.75;;;11.98;;
59728;SDS011;45588;51.598;5.618;2022-11-20T01:12:54;22.08;;;12.05;;
59728;SDS011;45588;51.598;5.618;2022-11-20T01:15:39;20.02;;;11.63;;
59728;SDS011;45588;51.598;5.618;2022-11-20T01:18:04;24.38;;;13.30;;
59728;SDS011;45588;51.598;5.618;2022-11-20T01:20:33;28.40;;;14.13;;
59728;SDS011;45588;51.598;5.618;2022-11-20T01:22:59;19.70;;;12.90;;
59728;SDS011;45588;51.598;5.618;2022-11-20T01:25:24;22.02;;;12.18;;
59728;SDS011;45588;51.598;5.618;2022-11-20T01:27:50;21.08;;;12.27;;
59728;SDS011;45588;51.598;5.618;2022-11-20T01:30:15;24.63;;;11.50;;
59728;SDS011;45588;51.598;5.618;2022-11-20T01:32:40;22.65;;;12.85;;
59728;SDS011;45588;51.598;5.618;2022-11-20T01:35:05;20.15;;;11.85;;
59728;SDS011;45588;51.598;5.618;2022-11-20T01:37:31;19.83;;;11.90;;
59728;SDS011;45588;51.598;5.618;2022-11-20T01:39:56;24.52;;;13.55;;
59728;SDS011;45588;51.598;5.618;2022-11-20T01:42:22;22.90;;;11.80;;
59728;SDS011;45588;51.598;5.618;2022-11-20T01:48:08;23.08;;;12.63;;
59728;SDS011;45588;51.598;5.618;2022-11-20T01:50:33;18.73;;;10.55;;
59728;SDS011;45588;51.598;5.618;2022-11-20T01:53:00;21.73;;;11.15;;
59728;SDS011;45588;51.598;5.618;2022-11-20T01:55:34;22.58;;;12.45;;
59728;SDS011;45588;51.598;5.618;2022-11-20T01:58:05;20.20;;;12.52;;
59728;SDS011;45588;51.598;5.618;2022-11-20T02:00:31;19.92;;;12.07;;
59728;SDS011;45588;51.598;5.618;2022-11-20T02:03:00;21.30;;;12.98;;
59728;SDS011;45588;51.598;5.618;2022-11-20T02:08:10;18.83;;;10.83;;
59728;SDS011;45588;51.598;5.618;2022-11-20T02:10:36;23.48;;;12.73;;
59728;SDS011;45588;51.598;5.618;2022-11-20T02:13:02;19.95;;;11.95;;
59728;SDS011;45588;51.598;5.618;2022-11-20T02:15:46;19.30;;;10.95;;
59728;SDS011;45588;51.598;5.618;2022-11-20T02:18:13;18.90;;;11.27;;
59728;SDS011;45588;51.598;5.618;2022-11-20T02:20:44;23.45;;;12.75;;
59728;SDS011;45588;51.598;5.618;2022-11-20T02:23:16;21.35;;;12.57;;
59728;SDS011;45588;51.598;5.618;2022-11-20T02:25:46;27.80;;;12.50;;
59728;SDS011;45588;51.598;5.618;2022-11-20T02:28:12;19.23;;;12.10;;
59728;SDS011;45588;51.598;5.618;2022-11-20T02:30:38;25.02;;;15.10;;
59728;SDS011;45588;51.598;5.618;2022-11-20T02:33:03;24.42;;;14.13;;
59728;SDS011;45588;51.598;5.618;2022-11-20T02:37:54;29.70;;;14.35;;
59728;SDS011;45588;51.598;5.618;2022-11-20T02:40:21;21.88;;;12.57;;
59728;SDS011;45588;51.598;5.618;2022-11-20T02:42:46;21.05;;;11.70;;
59728;SDS011;45588;51.598;5.618;2022-11-20T02:45:12;20.02;;;12.35;;
59728;SDS011;45588;51.598;5.618;2022-11-20T02:47:37;20.83;;;11.80;;
59728;SDS011;45588;51.598;5.618;2022-11-20T02:50:03;22.35;;;11.88;;
59728;SDS011;45588;51.598;5.618;2022-11-20T02:52:29;27.27;;;14.32;;
59728;SDS011;45588;51.598;5.618;2022-11-20T02:54:55;27.88;;;13.38;;
59728;SDS011;45588;51.598;5.618;2022-11-20T02:57:20;21.80;;;12.38;;
59728;SDS011;45588;51.598;5.618;2022-11-20T02:59:46;26.10;;;12.82;;
59728;SDS011;45588;51.598;5.618;2022-11-20T03:02:11;25.90;;;13.73;;
59728;SDS011;45588;51.598;5.618;2022-11-20T03:04:36;24.33;;;12.38;;
59728;SDS011;45588;51.598;5.618;2022-11-20T03:07:02;20.73;;;13.38;;
59728;SDS011;45588;51.598;5.618;2022-11-20T03:09:27;27.08;;;11.23;;
59728;SDS011;45588;51.598;5.618;2022-11-20T03:11:52;23.08;;;11.07;;
59728;SDS011;45588;51.598;5.618;2022-11-20T03:14:17;20.98;;;13.07;;
59728;SDS011;45588;51.598;5.618;2022-11-20T03:16:43;20.75;;;12.30;;
59728;SDS011;45588;51.598;5.618;2022-11-20T03:19:08;22.67;;;13.68;;
59728;SDS011;45588;51.598;5.618;2022-11-20T03:21:33;23.15;;;13.45;;
59728;SDS011;45588;51.598;5.618;2022-11-20T03:23:59;23.98;;;13.00;;
59728;SDS011;45588;51.598;5.618;2022-11-20T03:26:25;28.05;;;14.18;;
59728;SDS011;45588;51.598;5.618;2022-11-20T03:31:20;24.60;;;15.25;;
59728;SDS011;45588;51.598;5.618;2022-11-20T03:33:47;36.83;;;20.08;;
59728;SDS011;45588;51.598;5.618;2022-11-20T03:36:14;36.25;;;18.30;;
59728;SDS011;45588;51.598;5.618;2022-11-20T03:38:40;30.98;;;16.23;;
59728;SDS011;45588;51.598;5.618;2022-11-20T03:41:07;32.80;;;20.75;;
59728;SDS011;45588;51.598;5.618;2022-11-20T03:43:34;32.70;;;16.83;;
59728;SDS011;45588;51.598;5.618;2022-11-20T03:46:00;31.40;;;17.08;;
59728;SDS011;45588;51.598;5.618;2022-11-20T03:48:26;33.17;;;19.20;;
59728;SDS011;45588;51.598;5.618;2022-11-20T03:50:52;31.02;;;17.05;;
59728;SDS011;45588;51.598;5.618;2022-11-20T03:53:18;26.02;;;15.18;;
59728;SDS011;45588;51.598;5.618;2022-11-20T03:55:44;31.52;;;18.42;;
59728;SDS011;45588;51.598;5.618;2022-11-20T03:58:10;25.60;;;13.93;;
59728;SDS011;45588;51.598;5.618;2022-11-20T04:00:35;30.05;;;14.65;;
59728;SDS011;45588;51.598;5.618;2022-11-20T04:03:01;27.15;;;14.85;;
59728;SDS011;45588;51.598;5.618;2022-11-20T04:05:27;31.80;;;18.67;;
59728;SDS011;45588;51.598;5.618;2022-11-20T04:07:53;31.48;;;16.55;;
59728;SDS011;45588;51.598;5.618;2022-11-20T04:10:18;26.90;;;13.73;;
59728;SDS011;45588;51.598;5.618;2022-11-20T04:12:44;28.42;;;16.77;;
59728;SDS011;45588;51.598;5.618;2022-11-20T04:15:09;25.40;;;15.10;;
59728;SDS011;45588;51.598;5.618;2022-11-20T04:17:34;30.13;;;15.35;;
59728;SDS011;45588;51.598;5.618;2022-11-20T04:20:00;26.83;;;13.57;;
59728;SDS011;45588;51.598;5.618;2022-11-20T04:22:26;27.45;;;15.70;;
59728;SDS011;45588;51.598;5.618;2022-11-20T04:24:51;28.35;;;15.40;;
59728;SDS011;45588;51.598;5.618;2022-11-20T04:27:16;26.05;;;15.48;;
59728;SDS011;45588;51.598;5.618;2022-11-20T04:29:42;25.98;;;14.50;;
59728;SDS011;45588;51.598;5.618;2022-11-20T04:32:07;22.38;;;13.55;;
59728;SDS011;45588;51.598;5.618;2022-11-20T04:34:32;28.80;;;15.00;;
59728;SDS011;45588;51.598;5.618;2022-11-20T04:36:58;25.30;;;14.52;;
59728;SDS011;45588;51.598;5.618;2022-11-20T04:39:23;23.02;;;14.43;;
59728;SDS011;45588;51.598;5.618;2022-11-20T04:41:48;26.05;;;13.82;;
59728;SDS011;45588;51.598;5.618;2022-11-20T04:44:33;22.77;;;12.98;;
59728;SDS011;45588;51.598;5.618;2022-11-20T04:46:59;27.10;;;15.15;;
59728;SDS011;45588;51.598;5.618;2022-11-20T04:49:24;25.10;;;13.65;;
59728;SDS011;45588;51.598;5.618;2022-11-20T04:51:52;24.70;;;13.95;;
59728;SDS011;45588;51.598;5.618;2022-11-20T04:54:18;26.02;;;13.00;;
59728;SDS011;45588;51.598;5.618;2022-11-20T04:56:45;21.88;;;13.13;;
59728;SDS011;45588;51.598;5.618;2022-11-20T04:59:12;23.23;;;12.90;;
59728;SDS011;45588;51.598;5.618;2022-11-20T05:01:37;26.92;;;14.48;;
59728;SDS011;45588;51.598;5.618;2022-11-20T05:04:02;24.75;;;14.55;;
59728;SDS011;45588;51.598;5.618;2022-11-20T05:06:28;26.25;;;13.98;;
59728;SDS011;45588;51.598;5.618;2022-11-20T05:08:53;29.20;;;15.18;;
59728;SDS011;45588;51.598;5.618;2022-11-20T05:11:19;19.10;;;12.40;;
59728;SDS011;45588;51.598;5.618;2022-11-20T05:13:46;24.95;;;13.35;;
59728;SDS011;45588;51.598;5.618;2022-11-20T05:16:13;23.33;;;13.10;;
59728;SDS011;45588;51.598;5.618;2022-11-20T05:18:40;25.33;;;14.32;;
59728;SDS011;45588;51.598;5.618;2022-11-20T05:21:06;22.35;;;13.88;;
59728;SDS011;45588;51.598;5.618;2022-11-20T05:23:32;25.90;;;14.15;;
59728;SDS011;45588;51.598;5.618;2022-11-20T05:25:58;29.52;;;15.57;;
59728;SDS011;45588;51.598;5.618;2022-11-20T05:28:24;28.15;;;13.48;;
59728;SDS011;45588;51.598;5.618;2022-11-20T05:30:50;26.70;;;14.20;;
59728;SDS011;45588;51.598;5.618;2022-11-20T05:33:15;27.42;;;15.18;;
59728;SDS011;45588;51.598;5.618;2022-11-20T05:35:41;29.80;;;15.70;;
59728;SDS011;45588;51.598;5.618;2022-11-20T05:38:07;29.55;;;16.83;;
59728;SDS011;45588;51.598;5.618;2022-11-20T05:40:32;22.63;;;15.18;;
59728;SDS011;45588;51.598;5.618;2022-11-20T05:42:57;22.20;;;12.65;;
59728;SDS011;45588;51.598;5.618;2022-11-20T05:45:23;24.80;;;14.77;;
59728;SDS011;45588;51.598;5.618;2022-11-20T05:47:48;31.52;;;15.23;;
59728;SDS011;45588;51.598;5.618;2022-11-20T05:50:13;24.48;;;14.95;;
59728;SDS011;45588;51.598;5.618;2022-11-20T05:52:39;26.90;;;15.68;;
59728;SDS011;45588;51.598;5.618;2022-11-20T05:55:05;24.63;;;14.68;;
59728;SDS011;45588;51.598;5.618;2022-11-20T05:57:31;30.80;;;15.75;;
59728;SDS011;45588;51.598;5.618;2022-11-20T05:59:56;26.75;;;14.25;;
59728;SDS011;45588;51.598;5.618;2022-11-20T06:02:21;29.80;;;15.63;;
59728;SDS011;45588;51.598;5.618;2022-11-20T06:04:47;31.10;;;14.98;;
59728;SDS011;45588;51.598;5.618;2022-11-20T06:07:12;25.63;;;14.23;;
59728;SDS011;45588;51.598;5.618;2022-11-20T06:09:37;26.08;;;15.07;;
59728;SDS011;45588;51.598;5.618;2022-11-20T06:12:03;28.25;;;14.82;;
59728;SDS011;45588;51.598;5.618;2022-11-20T06:14:28;25.73;;;14.48;;
59728;SDS011;45588;51.598;5.618;2022-11-20T06:16:53;28.60;;;15.85;;
59728;SDS011;45588;51.598;5.618;2022-11-20T06:19:19;25.95;;;13.40;;
59728;SDS011;45588;51.598;5.618;2022-11-20T06:21:44;23.40;;;13.85;;
59728;SDS011;45588;51.598;5.618;2022-11-20T06:24:09;28.70;;;14.65;;
59728;SDS011;45588;51.598;5.618;2022-11-20T06:26:36;31.58;;;15.48;;
59728;SDS011;45588;51.598;5.618;2022-11-20T06:29:01;28.15;;;15.27;;
59728;SDS011;45588;51.598;5.618;2022-11-20T06:31:27;28.00;;;16.33;;
59728;SDS011;45588;51.598;5.618;2022-11-20T06:33:52;26.45;;;14.98;;
59728;SDS011;45588;51.598;5.618;2022-11-20T06:36:19;25.40;;;15.30;;
59728;SDS011;45588;51.598;5.618;2022-11-20T06:38:45;27.63;;;15.73;;
59728;SDS011;45588;51.598;5.618;2022-11-20T06:41:16;25.00;;;13.93;;
59728;SDS011;45588;51.598;5.618;2022-11-20T06:43:43;26.70;;;16.13;;
59728;SDS011;45588;51.598;5.618;2022-11-20T06:46:09;25.05;;;14.73;;
59728;SDS011;45588;51.598;5.618;2022-11-20T06:48:35;28.90;;;14.82;;
59728;SDS011;45588;51.598;5.618;2022-11-20T06:51:03;27.90;;;15.60;;
59728;SDS011;45588;51.598;5.618;2022-11-20T06:53:29;26.00;;;13.68;;
59728;SDS011;45588;51.598;5.618;2022-11-20T06:55:55;26.85;;;14.90;;
59728;SDS011;45588;51.598;5.618;2022-11-20T06:58:21;26.08;;;14.38;;
59728;SDS011;45588;51.598;5.618;2022-11-20T07:00:46;24.13;;;14.88;;
59728;SDS011;45588;51.598;5.618;2022-11-20T07:03:12;28.38;;;15.43;;
59728;SDS011;45588;51.598;5.618;2022-11-20T07:05:39;26.33;;;15.40;;
59728;SDS011;45588;51.598;5.618;2022-11-20T07:08:05;29.30;;;15.50;;
59728;SDS011;45588;51.598;5.618;2022-11-20T07:10:30;26.52;;;14.00;;
59728;SDS011;45588;51.598;5.618;2022-11-20T07:12:56;25.25;;;14.25;;
59728;SDS011;45588;51.598;5.618;2022-11-20T07:15:23;26.60;;;15.35;;
59728;SDS011;45588;51.598;5.618;2022-11-20T07:17:49;26.80;;;14.20;;
59728;SDS011;45588;51.598;5.618;2022-11-20T07:20:15;25.23;;;14.32;;
59728;SDS011;45588;51.598;5.618;2022-11-20T07:22:41;26.25;;;13.95;;
59728;SDS011;45588;51.598;5.618;2022-11-20T07:25:07;26.15;;;14.00;;
59728;SDS011;45588;51.598;5.618;2022-11-20T07:27:33;27.40;;;14.32;;
59728;SDS011;45588;51.598;5.618;2022-11-20T07:29:58;26.88;;;14.35;;
59728;SDS011;45588;51.598;5.618;2022-11-20T07:32:23;25.88;;;15.77;;
59728;SDS011;45588;51.598;5.618;2022-11-20T07:34:49;24.23;;;13.63;;
59728;SDS011;45588;51.598;5.618;2022-11-20T07:37:14;28.85;;;15.40;;
59728;SDS011;45588;51.598;5.618;2022-11-20T07:39:40;26.83;;;15.25;;
59728;SDS011;45588;51.598;5.618;2022-11-20T07:42:06;27.60;;;16.50;;
59728;SDS011;45588;51.598;5.618;2022-11-20T07:44:32;27.42;;;15.65;;
59728;SDS011;45588;51.598;5.618;2022-11-20T07:46:57;28.80;;;16.23;;
59728;SDS011;45588;51.598;5.618;2022-11-20T07:49:23;28.08;;;15.60;;
59728;SDS011;45588;51.598;5.618;2022-11-20T07:51:50;27.58;;;15.63;;
59728;SDS011;45588;51.598;5.618;2022-11-20T07:54:16;25.95;;;14.68;;
59728;SDS011;45588;51.598;5.618;2022-11-20T07:56:41;22.63;;;13.05;;
59728;SDS011;45588;51.598;5.618;2022-11-20T07:59:07;24.55;;;14.55;;
59728;SDS011;45588;51.598;5.618;2022-11-20T08:01:32;28.30;;;14.90;;
59728;SDS011;45588;51.598;5.618;2022-11-20T08:03:57;26.48;;;13.73;;
59728;SDS011;45588;51.598;5.618;2022-11-20T08:06:23;25.25;;;14.70;;
59728;SDS011;45588;51.598;5.618;2022-11-20T08:08:49;29.00;;;14.90;;
59728;SDS011;45588;51.598;5.618;2022-11-20T08:11:15;27.58;;;15.65;;
59728;SDS011;45588;51.598;5.618;2022-11-20T08:13:58;30.60;;;15.40;;
59728;SDS011;45588;51.598;5.618;2022-11-20T08:16:39;27.40;;;16.27;;
59728;SDS011;45588;51.598;5.618;2022-11-20T08:19:10;27.85;;;14.93;;
59728;SDS011;45588;51.598;5.618;2022-11-20T08:21:36;26.98;;;15.38;;
59728;SDS011;45588;51.598;5.618;2022-11-20T08:24:01;24.20;;;14.90;;
59728;SDS011;45588;51.598;5.618;2022-11-20T08:26:26;25.45;;;14.75;;
59728;SDS011;45588;51.598;5.618;2022-11-20T08:28:55;27.73;;;16.73;;
59728;SDS011;45588;51.598;5.618;2022-11-20T08:31:22;28.77;;;15.63;;
59728;SDS011;45588;51.598;5.618;2022-11-20T08:33:48;29.67;;;17.58;;
59728;SDS011;45588;51.598;5.618;2022-11-20T08:36:14;26.02;;;15.23;;
59728;SDS011;45588;51.598;5.618;2022-11-20T08:38:40;35.22;;;18.50;;
59728;SDS011;45588;51.598;5.618;2022-11-20T08:41:05;29.33;;;18.20;;
59728;SDS011;45588;51.598;5.618;2022-11-20T08:43:56;30.98;;;17.70;;
59728;SDS011;45588;51.598;5.618;2022-11-20T08:46:24;31.02;;;16.25;;
59728;SDS011;45588;51.598;5.618;2022-11-20T08:48:50;30.38;;;16.00;;
59728;SDS011;45588;51.598;5.618;2022-11-20T08:51:16;30.50;;;17.20;;
59728;SDS011;45588;51.598;5.618;2022-11-20T08:53:43;28.23;;;17.02;;
59728;SDS011;45588;51.598;5.618;2022-11-20T08:56:08;27.58;;;16.15;;
59728;SDS011;45588;51.598;5.618;2022-11-20T08:58:34;26.55;;;16.17;;
59728;SDS011;45588;51.598;5.618;2022-11-20T09:01:00;24.25;;;15.73;;
59728;SDS011;45588;51.598;5.618;2022-11-20T09:03:25;27.25;;;16.27;;
59728;SDS011;45588;51.598;5.618;2022-11-20T09:05:56;29.60;;;17.80;;
59728;SDS011;45588;51.598;5.618;2022-11-20T09:08:26;29.73;;;16.73;;
59728;SDS011;45588;51.598;5.618;2022-11-20T09:10:52;30.65;;;18.13;;
59728;SDS011;45588;51.598;5.618;2022-11-20T09:13:19;30.23;;;21.15;;
59728;SDS011;45588;51.598;5.618;2022-11-20T09:15:45;28.70;;;15.88;;
59728;SDS011;45588;51.598;5.618;2022-11-20T09:18:10;26.58;;;16.60;;
59728;SDS011;45588;51.598;5.618;2022-11-20T09:20:36;28.48;;;16.35;;
59728;SDS011;45588;51.598;5.618;2022-11-20T09:23:01;27.73;;;17.02;;
59728;SDS011;45588;51.598;5.618;2022-11-20T09:25:27;26.63;;;16.52;;
59728;SDS011;45588;51.598;5.618;2022-11-20T09:27:56;26.05;;;15.95;;
59728;SDS011;45588;51.598;5.618;2022-11-20T09:30:22;25.63;;;16.30;;
59728;SDS011;45588;51.598;5.618;2022-11-20T09:32:47;29.17;;;15.77;;
59728;SDS011;45588;51.598;5.618;2022-11-20T09:35:12;27.05;;;15.68;;
59728;SDS011;45588;51.598;5.618;2022-11-20T09:37:39;33.72;;;17.70;;
59728;SDS011;45588;51.598;5.618;2022-11-20T09:40:05;27.48;;;16.92;;
59728;SDS011;45588;51.598;5.618;2022-11-20T09:45:09;24.98;;;15.73;;
59728;SDS011;45588;51.598;5.618;2022-11-20T09:47:50;26.77;;;15.93;;
59728;SDS011;45588;51.598;5.618;2022-11-20T09:50:32;27.02;;;17.00;;
59728;SDS011;45588;51.598;5.618;2022-11-20T09:56:21;30.27;;;17.05;;
59728;SDS011;45588;51.598;5.618;2022-11-20T09:58:51;30.52;;;18.77;;
59728;SDS011;45588;51.598;5.618;2022-11-20T10:06:26;30.65;;;17.48;;
59728;SDS011;45588;51.598;5.618;2022-11-20T10:09:28;26.02;;;16.23;;
59728;SDS011;45588;51.598;5.618;2022-11-20T10:28:30;29.83;;;18.92;;
59728;SDS011;45588;51.598;5.618;2022-11-20T10:31:02;29.95;;;18.90;;
59728;SDS011;45588;51.598;5.618;2022-11-20T10:33:31;31.88;;;19.35;;
59728;SDS011;45588;51.598;5.618;2022-11-20T10:38:52;34.30;;;19.52;;
59728;SDS011;45588;51.598;5.618;2022-11-20T10:41:26;31.33;;;16.75;;
59728;SDS011;45588;51.598;5.618;2022-11-20T10:47:04;34.40;;;19.27;;
59728;SDS011;45588;51.598;5.618;2022-11-20T10:49:33;32.97;;;17.88;;
59728;SDS011;45588;51.598;5.618;2022-11-20T11:00:35;39.05;;;20.02;;
59728;SDS011;45588;51.598;5.618;2022-11-20T11:03:00;35.28;;;19.45;;
59728;SDS011;45588;51.598;5.618;2022-11-20T11:05:45;40.03;;;20.40;;
59728;SDS011;45588;51.598;5.618;2022-11-20T11:08:17;38.70;;;21.27;;
59728;SDS011;45588;51.598;5.618;2022-11-20T11:10:53;32.03;;;19.20;;
59728;SDS011;45588;51.598;5.618;2022-11-20T11:13:28;49.13;;;21.15;;
59728;SDS011;45588;51.598;5.618;2022-11-20T11:15:54;40.25;;;21.25;;
59728;SDS011;45588;51.598;5.618;2022-11-20T11:18:27;39.75;;;20.65;;
59728;SDS011;45588;51.598;5.618;2022-11-20T11:21:00;37.45;;;20.77;;
59728;SDS011;45588;51.598;5.618;2022-11-20T11:25:57;43.20;;;21.02;;
59728;SDS011;45588;51.598;5.618;2022-11-20T11:28:25;40.05;;;21.55;;
59728;SDS011;45588;51.598;5.618;2022-11-20T11:30:52;45.42;;;23.48;;
59728;SDS011;45588;51.598;5.618;2022-11-20T11:33:19;43.08;;;21.52;;
59728;SDS011;45588;51.598;5.618;2022-11-20T11:35:49;42.03;;;22.45;;
59728;SDS011;45588;51.598;5.618;2022-11-20T11:38:23;39.80;;;20.95;;
59728;SDS011;45588;51.598;5.618;2022-11-20T11:40:54;41.88;;;21.08;;
59728;SDS011;45588;51.598;5.618;2022-11-20T11:43:23;47.17;;;21.67;;
59728;SDS011;45588;51.598;5.618;2022-11-20T11:48:58;45.40;;;21.27;;
59728;SDS011;45588;51.598;5.618;2022-11-20T11:51:30;49.70;;;23.90;;
59728;SDS011;45588;51.598;5.618;2022-11-20T11:56:44;48.03;;;21.88;;
59728;SDS011;45588;51.598;5.618;2022-11-20T11:59:11;50.58;;;23.30;;
59728;SDS011;45588;51.598;5.618;2022-11-20T12:01:43;53.05;;;23.35;;
59728;SDS011;45588;51.598;5.618;2022-11-20T12:07:11;47.95;;;23.08;;
59728;SDS011;45588;51.598;5.618;2022-11-20T12:09:43;52.20;;;22.73;;
59728;SDS011;45588;51.598;5.618;2022-11-20T12:12:16;47.83;;;22.15;;
59728;SDS011;45588;51.598;5.618;2022-11-20T12:14:46;45.25;;;23.17;;
59728;SDS011;45588;51.598;5.618;2022-11-20T12:17:15;52.57;;;24.93;;
59728;SDS011;45588;51.598;5.618;2022-11-20T12:19:40;58.45;;;23.92;;
59728;SDS011;45588;51.598;5.618;2022-11-20T12:22:30;51.20;;;23.67;;
59728;SDS011;45588;51.598;5.618;2022-11-20T12:30:16;47.97;;;25.27;;
59728;SDS011;45588;51.598;5.618;2022-11-20T12:32:48;58.88;;;25.42;;
59728;SDS011;45588;51.598;5.618;2022-11-20T12:44:17;45.67;;;22.88;;
59728;SDS011;45588;51.598;5.618;2022-11-20T12:52:48;49.42;;;21.25;;
59728;SDS011;45588;51.598;5.618;2022-11-20T12:58:11;50.42;;;22.08;;
59728;SDS011;45588;51.598;5.618;2022-11-20T13:00:56;49.28;;;21.90;;
59728;SDS011;45588;51.598;5.618;2022-11-20T13:03:44;53.55;;;23.35;;
59728;SDS011;45588;51.598;5.618;2022-11-20T13:06:18;50.25;;;22.73;;
59728;SDS011;45588;51.598;5.618;2022-11-20T13:08:53;49.45;;;23.30;;
59728;SDS011;45588;51.598;5.618;2022-11-20T13:11:28;55.60;;;23.42;;
59728;SDS011;45588;51.598;5.618;2022-11-20T13:19:23;55.08;;;21.52;;
59728;SDS011;45588;51.598;5.618;2022-11-20T13:21:49;47.80;;;21.80;;
59728;SDS011;45588;51.598;5.618;2022-11-20T13:24:20;50.47;;;23.55;;
59728;SDS011;45588;51.598;5.618;2022-11-20T13:26:48;51.05;;;24.65;;
59728;SDS011;45588;51.598;5.618;2022-11-20T13:29:28;57.72;;;24.88;;
59728;SDS011;45588;51.598;5.618;2022-11-20T13:34:39;45.28;;;21.40;;
59728;SDS011;45588;51.598;5.618;2022-11-20T13:37:24;56.05;;;26.90;;
59728;SDS011;45588;51.598;5.618;2022-11-20T13:39:52;54.08;;;24.52;;
59728;SDS011;45588;51.598;5.618;2022-11-20T13:42:23;46.60;;;22.17;;
59728;SDS011;45588;51.598;5.618;2022-11-20T13:44:53;56.17;;;25.88;;
59728;SDS011;45588;51.598;5.618;2022-11-20T13:47:20;52.45;;;25.95;;
59728;SDS011;45588;51.598;5.618;2022-11-20T13:49:47;52.30;;;23.00;;
59728;SDS011;45588;51.598;5.618;2022-11-20T13:55:21;54.42;;;24.75;;
59728;SDS011;45588;51.598;5.618;2022-11-20T14:00:57;56.15;;;24.15;;
59728;SDS011;45588;51.598;5.618;2022-11-20T14:03:27;53.88;;;23.30;;
59728;SDS011;45588;51.598;5.618;2022-11-20T14:06:02;60.40;;;25.58;;
59728;SDS011;45588;51.598;5.618;2022-11-20T14:11:16;52.42;;;22.50;;
59728;SDS011;45588;51.598;5.618;2022-11-20T14:16:23;55.40;;;23.13;;
59728;SDS011;45588;51.598;5.618;2022-11-20T14:18:49;54.28;;;24.15;;
59728;SDS011;45588;51.598;5.618;2022-11-20T14:21:28;53.25;;;21.75;;
59728;SDS011;45588;51.598;5.618;2022-11-20T14:24:06;47.17;;;20.52;;
59728;SDS011;45588;51.598;5.618;2022-11-20T14:26:35;62.67;;;25.38;;
59728;SDS011;45588;51.598;5.618;2022-11-20T14:29:03;55.47;;;22.75;;
59728;SDS011;45588;51.598;5.618;2022-11-20T14:31:29;57.22;;;24.85;;
59728;SDS011;45588;51.598;5.618;2022-11-20T14:33:54;48.13;;;22.15;;
59728;SDS011;45588;51.598;5.618;2022-11-20T14:36:21;50.35;;;22.00;;
59728;SDS011;45588;51.598;5.618;2022-11-20T14:38:48;54.75;;;22.55;;
59728;SDS011;45588;51.598;5.618;2022-11-20T14:41:16;48.33;;;22.40;;
59728;SDS011;45588;51.598;5.618;2022-11-20T14:43:58;47.83;;;23.20;;
59728;SDS011;45588;51.598;5.618;2022-11-20T14:46:24;49.72;;;23.88;;
59728;SDS011;45588;51.598;5.618;2022-11-20T14:48:53;51.95;;;20.70;;
59728;SDS011;45588;51.598;5.618;2022-11-20T14:51:28;57.40;;;23.10;;
59728;SDS011;45588;51.598;5.618;2022-11-20T14:54:09;46.80;;;22.65;;
59728;SDS011;45588;51.598;5.618;2022-11-20T14:56:36;42.05;;;21.02;;
59728;SDS011;45588;51.598;5.618;2022-11-20T14:59:02;55.40;;;22.75;;
59728;SDS011;45588;51.598;5.618;2022-11-20T15:01:28;53.40;;;21.33;;
59728;SDS011;45588;51.598;5.618;2022-11-20T15:06:29;52.92;;;24.10;;
59728;SDS011;45588;51.598;5.618;2022-11-20T15:08:56;55.08;;;21.52;;
59728;SDS011;45588;51.598;5.618;2022-11-20T15:11:29;48.47;;;21.33;;
59728;SDS011;45588;51.598;5.618;2022-11-20T15:13:56;52.55;;;22.02;;
59728;SDS011;45588;51.598;5.618;2022-11-20T15:16:23;44.05;;;21.83;;
59728;SDS011;45588;51.598;5.618;2022-11-20T15:18:49;42.50;;;21.98;;
59728;SDS011;45588;51.598;5.618;2022-11-20T15:21:16;48.72;;;21.70;;
59728;SDS011;45588;51.598;5.618;2022-11-20T15:23:43;49.42;;;22.02;;
59728;SDS011;45588;51.598;5.618;2022-11-20T15:26:09;48.80;;;20.23;;
59728;SDS011;45588;51.598;5.618;2022-11-20T15:28:36;46.75;;;21.63;;
59728;SDS011;45588;51.598;5.618;2022-11-20T15:31:05;54.28;;;22.95;;
59728;SDS011;45588;51.598;5.618;2022-11-20T15:33:31;40.85;;;18.85;;
59728;SDS011;45588;51.598;5.618;2022-11-20T15:35:58;77.63;;;51.13;;
59728;SDS011;45588;51.598;5.618;2022-11-20T15:38:23;44.22;;;19.58;;
59728;SDS011;45588;51.598;5.618;2022-11-20T15:40:48;38.47;;;18.20;;
59728;SDS011;45588;51.598;5.618;2022-11-20T15:43:14;49.60;;;21.05;;
59728;SDS011;45588;51.598;5.618;2022-11-20T15:45:40;43.90;;;21.30;;
59728;SDS011;45588;51.598;5.618;2022-11-20T15:48:08;51.47;;;22.25;;
59728;SDS011;45588;51.598;5.618;2022-11-20T15:50:38;53.42;;;22.08;;
59728;SDS011;45588;51.598;5.618;2022-11-20T15:53:09;41.38;;;19.33;;
59728;SDS011;45588;51.598;5.618;2022-11-20T15:55:35;44.35;;;19.80;;
59728;SDS011;45588;51.598;5.618;2022-11-20T15:58:00;43.25;;;19.27;;
59728;SDS011;45588;51.598;5.618;2022-11-20T16:00:25;40.75;;;19.05;;
59728;SDS011;45588;51.598;5.618;2022-11-20T16:02:51;46.97;;;19.48;;
59728;SDS011;45588;51.598;5.618;2022-11-20T16:05:16;44.05;;;19.75;;
59728;SDS011;45588;51.598;5.618;2022-11-20T16:07:42;48.88;;;22.13;;
59728;SDS011;45588;51.598;5.618;2022-11-20T16:10:07;41.10;;;20.00;;
59728;SDS011;45588;51.598;5.618;2022-11-20T16:12:33;52.10;;;21.48;;
59728;SDS011;45588;51.598;5.618;2022-11-20T16:15:17;43.40;;;20.40;;
59728;SDS011;45588;51.598;5.618;2022-11-20T16:18:01;35.28;;;18.00;;